Nyk Constellation — V7NP4 — position and weather

sailwx.info

Track history (hours):
 
Tides and Currents Weather Stations Pressure Air Temp Water Temp Dewpoint Dewpoint Depression Visibility Wind Speed Wind Dir Waves Ship Positions

Nyk Constellation

Last reported at 2017-Sep-18 10:54 UTC. Time now 2017-Sep-22 20:48 UTC.
Position N 38°11' W 124°20'.

Length 294 m; draft 10.4 m.

Type: Cargo ship. MMSI: 538002992.

Date/timePositionNaut miles runAvg speedWind from/ knotsBaromVisibWave heightAir tempDewpointWater temp
2017-Sep-18 10:54N 38°11' W 124°20'514.0
2017-Sep-18 10:30N 38°11' W 124°13'713.9
2017-Sep-18 10:00N 38°11' W 124°04'713.8
2017-Sep-18 09:30N 38°11' W 123°55'714.0
2017-Sep-18 09:00N 38°11' W 123°46'713.6
2017-Sep-18 08:30N 38°11' W 123°38'713.5
2017-Sep-18 08:00N 38°11' W 123°29'612.2
2017-Sep-18 07:30N 38°10' W 123°21'5 9.7
2017-Sep-18 07:00N 38°07' W 123°17'5 9.8
2017-Sep-18 06:30N 38°03' W 123°13'5 9.7
2017-Sep-18 06:00N 37°59' W 123°09'5 9.6
2017-Sep-18 05:30N 37°57' W 123°04'5 9.7
2017-Sep-18 05:00N 37°54' W 122°59'5 9.6
2017-Sep-18 04:30N 37°52' W 122°54'5 9.6
2017-Sep-18 04:00N 37°49' W 122°49'5 9.6
2017-Sep-18 03:30N 37°47' W 122°43'4 7.9
2017-Sep-18 03:00N 37°46' W 122°38'714.8
2017-Sep-18 02:30N 37°49' W 122°30'511.0
2017-Sep-18 02:00N 37°49' W 122°23'4 7.5
2017-Sep-18 01:31N 37°48' W 122°18'0 0.6
2017-Sep-18 01:01N 37°48' W 122°18'1 2.4
2017-Sep-18 00:30N 37°48' W 122°19'0 0.0
2017-Sep-17 23:58N 37°48' W 122°19'0 0.0
2017-Sep-17 23:28N 37°48' W 122°19'0 0.0
2017-Sep-17 22:55N 37°48' W 122°19'0 0.0
2017-Sep-17 22:28N 37°48' W 122°19'0 0.0
2017-Sep-17 21:55N 37°48' W 122°19'0 0.0
2017-Sep-17 21:28N 37°48' W 122°19'0 0.0
2017-Sep-17 20:58N 37°48' W 122°19'0 0.0
2017-Sep-17 20:28N 37°48' W 122°19'0 0.0
2017-Sep-17 19:58N 37°48' W 122°19'0 0.0
2017-Sep-17 19:28N 37°48' W 122°19'0 0.0
2017-Sep-17 18:58N 37°48' W 122°19'0 0.0
2017-Sep-17 18:28N 37°48' W 122°19'0 0.0
2017-Sep-17 17:58N 37°48' W 122°19'0 0.0
2017-Sep-17 17:25N 37°48' W 122°19'0 0.0
2017-Sep-17 16:58N 37°48' W 122°19'0 0.1
2017-Sep-17 16:28N 37°48' W 122°20'0 0.1
2017-Sep-17 15:58N 37°48' W 122°19'0 0.0
2017-Sep-17 15:28N 37°48' W 122°19'0 0.0
2017-Sep-17 14:58N 37°48' W 122°19'0 0.0
2017-Sep-17 14:28N 37°48' W 122°19'0 0.0
2017-Sep-17 13:58N 37°48' W 122°19'0 0.0
2017-Sep-17 13:28N 37°48' W 122°19'0 1.0
2017-Sep-17 13:01N 37°48' W 122°20'510.1
2017-Sep-17 12:30N 37°49' W 122°26'714.3
2017-Sep-17 12:00N 37°47' W 122°35'611.2
2017-Sep-17 11:31N 37°45' W 122°41'4 7.5
2017-Sep-17 11:00N 37°41' W 122°41'4 8.8
2017-Sep-17 10:31N 37°37' W 122°40'5 9.2
2017-Sep-17 10:00N 37°32' W 122°40'5 9.1
2017-Sep-17 09:30N 37°27' W 122°40'4 9.0
2017-Sep-17 09:00N 37°23' W 122°40'4 8.9
2017-Sep-17 08:30N 37°18' W 122°40'5 9.3
2017-Sep-17 08:00N 37°14' W 122°40'713.3
2017-Sep-17 07:30N 37°07' W 122°39'713.3
2017-Sep-17 07:00N 37°01' W 122°36'713.3
2017-Sep-17 06:30N 36°55' W 122°34'713.1
2017-Sep-17 05:56N 36°48' W 122°31'613.4
2017-Sep-17 05:29N 36°42' W 122°28'613.5
2017-Sep-17 05:00N 36°36' W 122°24'713.5
2017-Sep-17 04:30N 36°30' W 122°20'713.5
2017-Sep-17 04:00N 36°24' W 122°16'713.5
2017-Sep-17 03:30N 36°19' W 122°12'913.9
2017-Sep-17 02:51N 36°11' W 122°06'617.2
2017-Sep-17 02:30N 36°06' W 122°03'816.8
2017-Sep-17 02:00N 35°58' W 121°58'917.0
2017-Sep-17 01:30N 35°51' W 121°52'815.4
2017-Sep-17 01:00N 35°44' W 121°48'713.5
2017-Sep-17 00:30N 35°38' W 121°43'8 7.3
2017-Sep-16 23:24N 35°32' W 121°37'0 1.2
2017-Sep-16 23:00N 35°32' W 121°38'1 1.3
2017-Sep-16 22:27N 35°33' W 121°38'10 2.4
2017-Sep-16 18:20N 35°23' W 121°33'513.9
2017-Sep-16 18:00N 35°19' W 121°31'714.2
2017-Sep-16 17:30N 35°13' W 121°27'714.3
2017-Sep-16 17:00N 35°07' W 121°22'714.2
2017-Sep-16 16:30N 35°01' W 121°18'714.3
2017-Sep-16 16:00N 34°55' W 121°14'714.1
2017-Sep-16 15:30N 34°48' W 121°10'714.1
2017-Sep-16 15:01N 34°42' W 121°05'713.9
2017-Sep-16 14:31N 34°36' W 121°01'714.3
2017-Sep-16 14:00N 34°30' W 120°57'713.4
2017-Sep-16 13:30N 34°26' W 120°51'714.0
2017-Sep-16 13:00N 34°24' W 120°42'714.0
2017-Sep-16 12:30N 34°22' W 120°34'714.2
2017-Sep-16 12:00N 34°20' W 120°26'714.3
2017-Sep-16 11:30N 34°19' W 120°18'714.4
2017-Sep-16 11:01N 34°17' W 120°09'714.2
2017-Sep-16 10:30N 34°15' W 120°01'814.3
2017-Sep-16 09:58N 34°13' W 119°52'714.0
2017-Sep-16 09:30N 34°11' W 119°44'713.8
2017-Sep-16 09:00N 34°09' W 119°36'713.5
2017-Sep-16 08:30N 34°08' W 119°28'713.3
2017-Sep-16 08:00N 34°06' W 119°21'713.6
2017-Sep-16 07:30N 34°03' W 119°13'713.4
2017-Sep-16 07:00N 33°60' W 119°06'510.3
2017-Sep-16 06:30N 33°57' W 119°00'5 9.7
2017-Sep-16 05:57N 33°55' W 118°55'510.0
2017-Sep-16 05:30N 33°53' W 118°50'510.0
2017-Sep-16 04:59N 33°50' W 118°45'5 9.7
2017-Sep-16 04:30N 33°48' W 118°40'5 9.7
2017-Sep-16 04:00N 33°45' W 118°35'5 9.6
2017-Sep-16 03:30N 33°43' W 118°30'5 9.7
2017-Sep-16 03:00N 33°41' W 118°25'5 9.2
2017-Sep-16 02:30N 33°38' W 118°20'4 8.6
2017-Sep-16 02:00N 33°40' W 118°15'4 7.3
2017-Sep-16 01:30N 33°44' W 118°16'2 3.4
2017-Sep-16 01:00N 33°45' W 118°16'0 0.1
2017-Sep-16 00:17N 33°45' W 118°16'0 0.0
2017-Sep-15 23:35N 33°45' W 118°16'0 0.0
2017-Sep-15 23:23N 33°45' W 118°16'0 0.1
2017-Sep-15 22:53N 33°45' W 118°16'0 0.0
2017-Sep-15 22:29N 33°45' W 118°16'0 0.1
2017-Sep-15 21:59N 33°45' W 118°16'0 0.0
2017-Sep-15 21:26N 33°45' W 118°16'0 0.0
2017-Sep-15 20:11N 33°45' W 118°16'0 0.0
2017-Sep-15 19:59N 33°45' W 118°16'0 0.0
2017-Sep-15 19:29N 33°45' W 118°16'0 0.0
2017-Sep-15 18:59N 33°45' W 118°16'0 0.0
2017-Sep-15 18:14N 33°45' W 118°16'0 0.0
2017-Sep-15 17:56N 33°45' W 118°16'0 0.0
2017-Sep-15 14:32N 33°45' W 118°16'0 0.1
2017-Sep-15 14:26N 33°45' W 118°16'0 0.1
2017-Sep-15 13:59N 33°45' W 118°16'0 0.1
2017-Sep-15 13:26N 33°45' W 118°16'0 0.0
2017-Sep-15 12:59N 33°45' W 118°16'0 0.0
2017-Sep-15 12:26N 33°45' W 118°16'0 0.0
2017-Sep-15 11:56N 33°45' W 118°16'0 0.0
2017-Sep-15 11:26N 33°45' W 118°16'0 0.1
2017-Sep-15 10:50N 33°45' W 118°16'0 0.1
2017-Sep-15 10:26N 33°45' W 118°16'0 0.0
2017-Sep-15 08:56N 33°45' W 118°16'0 0.0
2017-Sep-15 08:14N 33°45' W 118°16'0 0.0
2017-Sep-15 07:56N 33°45' W 118°16'0 0.1
2017-Sep-15 07:26N 33°45' W 118°16'0 0.0
2017-Sep-15 04:29N 33°45' W 118°16'0 0.0
2017-Sep-15 03:59N 33°45' W 118°16'0 0.0
2017-Sep-15 03:23N 33°45' W 118°16'0 0.0
2017-Sep-15 01:47N 33°45' W 118°16'0 0.0
2017-Sep-15 00:29N 33°45' W 118°16'0 0.0
2017-Sep-14 23:56N 33°45' W 118°16'0 0.0
2017-Sep-14 23:23N 33°45' W 118°16'0 0.0
2017-Sep-14 22:59N 33°45' W 118°16'0 0.0
2017-Sep-14 21:26N 33°45' W 118°16'0 0.0
2017-Sep-14 20:23N 33°45' W 118°16'0 0.0
2017-Sep-14 18:59N 33°45' W 118°16'0 0.0
2017-Sep-14 18:23N 33°45' W 118°16'0 0.1
2017-Sep-14 17:59N 33°45' W 118°16'0 0.0
2017-Sep-14 17:05N 33°45' W 118°16'0 0.0
2017-Sep-14 16:59N 33°45' W 118°16'0 0.0
2017-Sep-14 16:23N 33°45' W 118°16'0 0.0
2017-Sep-14 13:41N 33°45' W 118°16'0 0.0
2017-Sep-14 09:11N 33°45' W 118°16'0 0.0
2017-Sep-14 08:53N 33°45' W 118°16'0 0.0
2017-Sep-14 05:47N 33°45' W 118°16'0 0.0
2017-Sep-14 05:29N 33°45' W 118°16'0 0.0
2017-Sep-14 04:20N 33°45' W 118°16'0 0.0
2017-Sep-14 03:59N 33°45' W 118°16'0 0.0
2017-Sep-14 02:41N 33°45' W 118°16'0 0.0
2017-Sep-14 02:29N 33°45' W 118°16'0 0.0
2017-Sep-14 01:53N 33°45' W 118°16'0 0.0
2017-Sep-14 01:23N 33°45' W 118°16'0 0.0
2017-Sep-14 00:59N 33°45' W 118°16'0 0.0
2017-Sep-14 00:29N 33°45' W 118°16'0 0.0
2017-Sep-13 23:59N 33°45' W 118°16'0 0.0
2017-Sep-13 23:23N 33°45' W 118°16'0 0.7
2017-Sep-13 23:00N 33°45' W 118°16'2 4.3
2017-Sep-13 22:30N 33°43' W 118°16'4 8.9
2017-Sep-13 22:00N 33°39' W 118°13'3 6.6
2017-Sep-13 21:30N 33°37' W 118°15'5 9.2
2017-Sep-13 21:00N 33°36' W 118°21'510.3
2017-Sep-13 20:30N 33°39' W 118°26'510.2
2017-Sep-13 20:00N 33°41' W 118°32'510.1
2017-Sep-13 19:30N 33°44' W 118°37'510.1
2017-Sep-13 19:00N 33°46' W 118°42'510.8
2017-Sep-13 18:30N 33°49' W 118°48'510.9
2017-Sep-13 18:00N 33°51' W 118°53'611.4
2017-Sep-13 17:30N 33°54' W 118°59'611.2
2017-Sep-13 17:00N 33°57' W 119°05'611.2
2017-Sep-13 16:30N 33°60' W 119°11'510.1
2017-Sep-13 15:59N 34°02' W 119°17'510.8
2017-Sep-13 15:30N 34°04' W 119°23'714.5
2017-Sep-13 15:00N 34°06' W 119°31'815.5
2017-Sep-13 14:29N 34°08' W 119°41'817.4
2017-Sep-13 14:01N 34°10' W 119°50'917.9
2017-Sep-13 13:30N 34°13' W 120°01'918.0
2017-Sep-13 13:00N 34°15' W 120°11'917.0
2017-Sep-13 12:30N 34°17' W 120°21'817.3
2017-Sep-13 12:01N 34°19' W 120°31'917.4
2017-Sep-13 11:31N 34°22' W 120°41'917.0
2017-Sep-13 11:01N 34°24' W 120°51'816.9
2017-Sep-13 10:31N 34°26' W 121°01'917.2
2017-Sep-13 10:00N 34°30' W 121°10'917.4
2017-Sep-13 09:31N 34°34' W 121°20'917.2
2017-Sep-13 09:01N 34°38' W 121°29'917.0
2017-Sep-13 08:31N 34°41' W 121°39'917.1
2017-Sep-13 08:00N 34°45' W 121°48'917.7
2017-Sep-13 07:31N 34°49' W 121°58'918.2
2017-Sep-13 07:01N 34°53' W 122°08'917.6
2017-Sep-13 06:31N 34°57' W 122°17'917.7
2017-Sep-13 06:00N 35°01' W 122°27'917.5
2017-Sep-13 05:31N 35°05' W 122°37'1017.7
2017-Sep-13 04:57N 35°09' W 122°47'1317.9
2017-Sep-13 04:13N 35°15' W 123°02'417.9
2017-Sep-13 04:01N 35°16' W 123°06'918.2
2017-Sep-13 03:30N 35°20' W 123°16'918.4
2017-Sep-13 03:00N 35°24' W 123°26'918.6
2017-Sep-13 02:30N 35°28' W 123°36'918.6
2017-Sep-13 02:00N 35°33' W 123°47'918.7
2017-Sep-13 01:31N 35°37' W 123°57'918.6
2017-Sep-13 01:01N 35°41' W 124°07'1018.5
2017-Sep-13 00:29N 35°45' W 124°18'918.5
2017-Sep-13 00:00N 35°49' W 124°28'918.6
2017-Sep-12 23:30N 35°53' W 124°38'5618.9
2017-Sep-12 20:33N 36°17' W 125°41'218.8
2017-Sep-12 20:27N 36°18' W 125°43'1418.8
2017-Sep-12 19:42N 36°24' W 125°58'418.6
2017-Sep-12 19:30N 36°26' W 126°02'918.6
2017-Sep-12 19:01N 36°30' W 126°13'918.5
2017-Sep-12 18:31N 36°34' W 126°23'918.2
2017-Sep-12 18:01N 36°38' W 126°33'918.5
2017-Sep-12 17:31N 36°42' W 126°44'1018.4
2017-Sep-12 16:59N 36°46' W 126°55'918.7
2017-Sep-12 16:30N 36°50' W 127°05'1219.1
2017-Sep-12 15:52N 36°55' W 127°18'718.9
2017-Sep-12 15:31N 36°58' W 127°26'1318.6
2017-Sep-12 14:48N 37°04' W 127°41'  
Track history (hours):
 
Tides and Currents Weather Stations Pressure Air Temp Water Temp Dewpoint Dewpoint Depression Visibility Wind Speed Wind Dir Waves Ship Positions

Nyk Constellation

Last reported at 2017-Sep-18 10:54 UTC. Time now 2017-Sep-22 20:48 UTC.
Position N 38°11' W 124°20'.

Length 294 m; draft 10.4 m.

Type: Cargo ship. MMSI: 538002992.

Date/timePositionNaut miles runAvg speedWind from/ knotsBaromVisibWave heightAir tempDewpointWater temp
2017-Sep-18 10:54N 38°11' W 124°20'514.0
2017-Sep-18 10:30N 38°11' W 124°13'713.9
2017-Sep-18 10:00N 38°11' W 124°04'713.8
2017-Sep-18 09:30N 38°11' W 123°55'714.0
2017-Sep-18 09:00N 38°11' W 123°46'713.6
2017-Sep-18 08:30N 38°11' W 123°38'713.5
2017-Sep-18 08:00N 38°11' W 123°29'612.2
2017-Sep-18 07:30N 38°10' W 123°21'5 9.7
2017-Sep-18 07:00N 38°07' W 123°17'5 9.8
2017-Sep-18 06:30N 38°03' W 123°13'5 9.7
2017-Sep-18 06:00N 37°59' W 123°09'5 9.6
2017-Sep-18 05:30N 37°57' W 123°04'5 9.7
2017-Sep-18 05:00N 37°54' W 122°59'5 9.6
2017-Sep-18 04:30N 37°52' W 122°54'5 9.6
2017-Sep-18 04:00N 37°49' W 122°49'5 9.6
2017-Sep-18 03:30N 37°47' W 122°43'4 7.9
2017-Sep-18 03:00N 37°46' W 122°38'714.8
2017-Sep-18 02:30N 37°49' W 122°30'511.0
2017-Sep-18 02:00N 37°49' W 122°23'4 7.5
2017-Sep-18 01:31N 37°48' W 122°18'0 0.6
2017-Sep-18 01:01N 37°48' W 122°18'1 2.4
2017-Sep-18 00:30N 37°48' W 122°19'0 0.0
2017-Sep-17 23:58N 37°48' W 122°19'0 0.0
2017-Sep-17 23:28N 37°48' W 122°19'0 0.0
2017-Sep-17 22:55N 37°48' W 122°19'0 0.0
2017-Sep-17 22:28N 37°48' W 122°19'0 0.0
2017-Sep-17 21:55N 37°48' W 122°19'0 0.0
2017-Sep-17 21:28N 37°48' W 122°19'0 0.0
2017-Sep-17 20:58N 37°48' W 122°19'0 0.0
2017-Sep-17 20:28N 37°48' W 122°19'0 0.0
2017-Sep-17 19:58N 37°48' W 122°19'0 0.0
2017-Sep-17 19:28N 37°48' W 122°19'0 0.0
2017-Sep-17 18:58N 37°48' W 122°19'0 0.0
2017-Sep-17 18:28N 37°48' W 122°19'0 0.0
2017-Sep-17 17:58N 37°48' W 122°19'0 0.0
2017-Sep-17 17:25N 37°48' W 122°19'0 0.0
2017-Sep-17 16:58N 37°48' W 122°19'0 0.1
2017-Sep-17 16:28N 37°48' W 122°20'0 0.1
2017-Sep-17 15:58N 37°48' W 122°19'0 0.0
2017-Sep-17 15:28N 37°48' W 122°19'0 0.0
2017-Sep-17 14:58N 37°48' W 122°19'0 0.0
2017-Sep-17 14:28N 37°48' W 122°19'0 0.0
2017-Sep-17 13:58N 37°48' W 122°19'0 0.0
2017-Sep-17 13:28N 37°48' W 122°19'0 1.0
2017-Sep-17 13:01N 37°48' W 122°20'510.1
2017-Sep-17 12:30N 37°49' W 122°26'714.3
2017-Sep-17 12:00N 37°47' W 122°35'611.2
2017-Sep-17 11:31N 37°45' W 122°41'4 7.5
2017-Sep-17 11:00N 37°41' W 122°41'4 8.8
2017-Sep-17 10:31N 37°37' W 122°40'5 9.2
2017-Sep-17 10:00N 37°32' W 122°40'5 9.1
2017-Sep-17 09:30N 37°27' W 122°40'4 9.0
2017-Sep-17 09:00N 37°23' W 122°40'4 8.9
2017-Sep-17 08:30N 37°18' W 122°40'5 9.3
2017-Sep-17 08:00N 37°14' W 122°40'713.3
2017-Sep-17 07:30N 37°07' W 122°39'713.3
2017-Sep-17 07:00N 37°01' W 122°36'713.3
2017-Sep-17 06:30N 36°55' W 122°34'713.1
2017-Sep-17 05:56N 36°48' W 122°31'613.4
2017-Sep-17 05:29N 36°42' W 122°28'613.5
2017-Sep-17 05:00N 36°36' W 122°24'713.5
2017-Sep-17 04:30N 36°30' W 122°20'713.5
2017-Sep-17 04:00N 36°24' W 122°16'713.5
2017-Sep-17 03:30N 36°19' W 122°12'913.9
2017-Sep-17 02:51N 36°11' W 122°06'617.2
2017-Sep-17 02:30N 36°06' W 122°03'816.8
2017-Sep-17 02:00N 35°58' W 121°58'917.0
2017-Sep-17 01:30N 35°51' W 121°52'815.4
2017-Sep-17 01:00N 35°44' W 121°48'713.5
2017-Sep-17 00:30N 35°38' W 121°43'8 7.3
2017-Sep-16 23:24N 35°32' W 121°37'0 1.2
2017-Sep-16 23:00N 35°32' W 121°38'1 1.3
2017-Sep-16 22:27N 35°33' W 121°38'10 2.4
2017-Sep-16 18:20N 35°23' W 121°33'513.9
2017-Sep-16 18:00N 35°19' W 121°31'714.2
2017-Sep-16 17:30N 35°13' W 121°27'714.3
2017-Sep-16 17:00N 35°07' W 121°22'714.2
2017-Sep-16 16:30N 35°01' W 121°18'714.3
2017-Sep-16 16:00N 34°55' W 121°14'714.1
2017-Sep-16 15:30N 34°48' W 121°10'714.1
2017-Sep-16 15:01N 34°42' W 121°05'713.9
2017-Sep-16 14:31N 34°36' W 121°01'714.3
2017-Sep-16 14:00N 34°30' W 120°57'713.4
2017-Sep-16 13:30N 34°26' W 120°51'714.0
2017-Sep-16 13:00N 34°24' W 120°42'714.0
2017-Sep-16 12:30N 34°22' W 120°34'714.2
2017-Sep-16 12:00N 34°20' W 120°26'714.3
2017-Sep-16 11:30N 34°19' W 120°18'714.4
2017-Sep-16 11:01N 34°17' W 120°09'714.2
2017-Sep-16 10:30N 34°15' W 120°01'814.3
2017-Sep-16 09:58N 34°13' W 119°52'714.0
2017-Sep-16 09:30N 34°11' W 119°44'713.8
2017-Sep-16 09:00N 34°09' W 119°36'713.5
2017-Sep-16 08:30N 34°08' W 119°28'713.3
2017-Sep-16 08:00N 34°06' W 119°21'713.6
2017-Sep-16 07:30N 34°03' W 119°13'713.4
2017-Sep-16 07:00N 33°60' W 119°06'510.3
2017-Sep-16 06:30N 33°57' W 119°00'5 9.7
2017-Sep-16 05:57N 33°55' W 118°55'510.0
2017-Sep-16 05:30N 33°53' W 118°50'510.0
2017-Sep-16 04:59N 33°50' W 118°45'5 9.7
2017-Sep-16 04:30N 33°48' W 118°40'5 9.7
2017-Sep-16 04:00N 33°45' W 118°35'5 9.6
2017-Sep-16 03:30N 33°43' W 118°30'5 9.7
2017-Sep-16 03:00N 33°41' W 118°25'5 9.2
2017-Sep-16 02:30N 33°38' W 118°20'4 8.6
2017-Sep-16 02:00N 33°40' W 118°15'4 7.3
2017-Sep-16 01:30N 33°44' W 118°16'2 3.4
2017-Sep-16 01:00N 33°45' W 118°16'0 0.1
2017-Sep-16 00:17N 33°45' W 118°16'0 0.0
2017-Sep-15 23:35N 33°45' W 118°16'0 0.0
2017-Sep-15 23:23N 33°45' W 118°16'0 0.1
2017-Sep-15 22:53N 33°45' W 118°16'0 0.0
2017-Sep-15 22:29N 33°45' W 118°16'0 0.1
2017-Sep-15 21:59N 33°45' W 118°16'0 0.0
2017-Sep-15 21:26N 33°45' W 118°16'0 0.0
2017-Sep-15 20:11N 33°45' W 118°16'0 0.0
2017-Sep-15 19:59N 33°45' W 118°16'0 0.0
2017-Sep-15 19:29N 33°45' W 118°16'0 0.0
2017-Sep-15 18:59N 33°45' W 118°16'0 0.0
2017-Sep-15 18:14N 33°45' W 118°16'0 0.0
2017-Sep-15 17:56N 33°45' W 118°16'0 0.0
2017-Sep-15 14:32N 33°45' W 118°16'0 0.1
2017-Sep-15 14:26N 33°45' W 118°16'0 0.1
2017-Sep-15 13:59N 33°45' W 118°16'0 0.1
2017-Sep-15 13:26N 33°45' W 118°16'0 0.0
2017-Sep-15 12:59N 33°45' W 118°16'0 0.0
2017-Sep-15 12:26N 33°45' W 118°16'0 0.0
2017-Sep-15 11:56N 33°45' W 118°16'0 0.0
2017-Sep-15 11:26N 33°45' W 118°16'0 0.1
2017-Sep-15 10:50N 33°45' W 118°16'0 0.1
2017-Sep-15 10:26N 33°45' W 118°16'0 0.0
2017-Sep-15 08:56N 33°45' W 118°16'0 0.0
2017-Sep-15 08:14N 33°45' W 118°16'0 0.0
2017-Sep-15 07:56N 33°45' W 118°16'0 0.1
2017-Sep-15 07:26N 33°45' W 118°16'0 0.0
2017-Sep-15 04:29N 33°45' W 118°16'0 0.0
2017-Sep-15 03:59N 33°45' W 118°16'0 0.0
2017-Sep-15 03:23N 33°45' W 118°16'0 0.0
2017-Sep-15 01:47N 33°45' W 118°16'0 0.0
2017-Sep-15 00:29N 33°45' W 118°16'0 0.0
2017-Sep-14 23:56N 33°45' W 118°16'0 0.0
2017-Sep-14 23:23N 33°45' W 118°16'0 0.0
2017-Sep-14 22:59N 33°45' W 118°16'0 0.0
2017-Sep-14 21:26N 33°45' W 118°16'0 0.0
2017-Sep-14 20:23N 33°45' W 118°16'0 0.0
2017-Sep-14 18:59N 33°45' W 118°16'0 0.0
2017-Sep-14 18:23N 33°45' W 118°16'0 0.1
2017-Sep-14 17:59N 33°45' W 118°16'0 0.0
2017-Sep-14 17:05N 33°45' W 118°16'0 0.0
2017-Sep-14 16:59N 33°45' W 118°16'0 0.0
2017-Sep-14 16:23N 33°45' W 118°16'0 0.0
2017-Sep-14 13:41N 33°45' W 118°16'0 0.0
2017-Sep-14 09:11N 33°45' W 118°16'0 0.0
2017-Sep-14 08:53N 33°45' W 118°16'0 0.0
2017-Sep-14 05:47N 33°45' W 118°16'0 0.0
2017-Sep-14 05:29N 33°45' W 118°16'0 0.0
2017-Sep-14 04:20N 33°45' W 118°16'0 0.0
2017-Sep-14 03:59N 33°45' W 118°16'0 0.0
2017-Sep-14 02:41N 33°45' W 118°16'0 0.0
2017-Sep-14 02:29N 33°45' W 118°16'0 0.0
2017-Sep-14 01:53N 33°45' W 118°16'0 0.0
2017-Sep-14 01:23N 33°45' W 118°16'0 0.0
2017-Sep-14 00:59N 33°45' W 118°16'0 0.0
2017-Sep-14 00:29N 33°45' W 118°16'0 0.0
2017-Sep-13 23:59N 33°45' W 118°16'0 0.0
2017-Sep-13 23:23N 33°45' W 118°16'0 0.7
2017-Sep-13 23:00N 33°45' W 118°16'2 4.3
2017-Sep-13 22:30N 33°43' W 118°16'4 8.9
2017-Sep-13 22:00N 33°39' W 118°13'3 6.6
2017-Sep-13 21:30N 33°37' W 118°15'5 9.2
2017-Sep-13 21:00N 33°36' W 118°21'510.3
2017-Sep-13 20:30N 33°39' W 118°26'510.2
2017-Sep-13 20:00N 33°41' W 118°32'510.1
2017-Sep-13 19:30N 33°44' W 118°37'510.1
2017-Sep-13 19:00N 33°46' W 118°42'510.8
2017-Sep-13 18:30N 33°49' W 118°48'510.9
2017-Sep-13 18:00N 33°51' W 118°53'611.4
2017-Sep-13 17:30N 33°54' W 118°59'611.2
2017-Sep-13 17:00N 33°57' W 119°05'611.2
2017-Sep-13 16:30N 33°60' W 119°11'510.1
2017-Sep-13 15:59N 34°02' W 119°17'510.8
2017-Sep-13 15:30N 34°04' W 119°23'714.5
2017-Sep-13 15:00N 34°06' W 119°31'815.5
2017-Sep-13 14:29N 34°08' W 119°41'817.4
2017-Sep-13 14:01N 34°10' W 119°50'917.9
2017-Sep-13 13:30N 34°13' W 120°01'918.0
2017-Sep-13 13:00N 34°15' W 120°11'917.0
2017-Sep-13 12:30N 34°17' W 120°21'817.3
2017-Sep-13 12:01N 34°19' W 120°31'917.4
2017-Sep-13 11:31N 34°22' W 120°41'917.0
2017-Sep-13 11:01N 34°24' W 120°51'816.9
2017-Sep-13 10:31N 34°26' W 121°01'917.2
2017-Sep-13 10:00N 34°30' W 121°10'917.4
2017-Sep-13 09:31N 34°34' W 121°20'917.2
2017-Sep-13 09:01N 34°38' W 121°29'917.0
2017-Sep-13 08:31N 34°41' W 121°39'917.1
2017-Sep-13 08:00N 34°45' W 121°48'917.7
2017-Sep-13 07:31N 34°49' W 121°58'918.2
2017-Sep-13 07:01N 34°53' W 122°08'917.6
2017-Sep-13 06:31N 34°57' W 122°17'917.7
2017-Sep-13 06:00N 35°01' W 122°27'917.5
2017-Sep-13 05:31N 35°05' W 122°37'1017.7
2017-Sep-13 04:57N 35°09' W 122°47'1317.9
2017-Sep-13 04:13N 35°15' W 123°02'417.9
2017-Sep-13 04:01N 35°16' W 123°06'918.2
2017-Sep-13 03:30N 35°20' W 123°16'918.4
2017-Sep-13 03:00N 35°24' W 123°26'918.6
2017-Sep-13 02:30N 35°28' W 123°36'918.6
2017-Sep-13 02:00N 35°33' W 123°47'918.7
2017-Sep-13 01:31N 35°37' W 123°57'918.6
2017-Sep-13 01:01N 35°41' W 124°07'1018.5
2017-Sep-13 00:29N 35°45' W 124°18'918.5
2017-Sep-13 00:00N 35°49' W 124°28'918.6
2017-Sep-12 23:30N 35°53' W 124°38'5618.9
2017-Sep-12 20:33N 36°17' W 125°41'218.8
2017-Sep-12 20:27N 36°18' W 125°43'1418.8
2017-Sep-12 19:42N 36°24' W 125°58'418.6
2017-Sep-12 19:30N 36°26' W 126°02'918.6
2017-Sep-12 19:01N 36°30' W 126°13'918.5
2017-Sep-12 18:31N 36°34' W 126°23'918.2
2017-Sep-12 18:01N 36°38' W 126°33'918.5
2017-Sep-12 17:31N 36°42' W 126°44'1018.4
2017-Sep-12 16:59N 36°46' W 126°55'918.7
2017-Sep-12 16:30N 36°50' W 127°05'1219.1
2017-Sep-12 15:52N 36°55' W 127°18'718.9
2017-Sep-12 15:31N 36°58' W 127°26'1318.6
2017-Sep-12 14:48N 37°04' W 127°41'  

Dump ship's entire track history